createdAt,value
2022-08-12T00:02:02.076Z,21.12
2022-08-12T00:04:33.716Z,21.49
2022-08-12T00:07:22.058Z,21.48
2022-08-12T00:10:10.662Z,21.21
2022-08-12T00:12:58.858Z,21.04
2022-08-12T00:15:47.713Z,21.12
2022-08-12T00:18:38.958Z,21.26
2022-08-12T00:21:27.576Z,21.41
2022-08-12T00:24:16.230Z,21.42
2022-08-12T00:27:06.638Z,21.39
2022-08-12T00:29:55.599Z,21.23
2022-08-12T00:32:54.749Z,21.27
2022-08-12T00:35:45.388Z,21.44
2022-08-12T00:38:33.969Z,21.48
2022-08-12T00:41:22.384Z,21.25
2022-08-12T00:43:56.167Z,20.02
2022-08-12T00:46:32.625Z,19.28
2022-08-12T00:49:04.401Z,20.01
2022-08-12T00:51:53.986Z,20.42
2022-08-12T00:54:26.666Z,20.48
2022-08-12T00:57:04.339Z,20.55
2022-08-12T00:59:36.117Z,20.60
2022-08-12T01:02:12.086Z,20.63
2022-08-12T01:05:03.083Z,20.42
2022-08-12T01:07:51.991Z,20.44
2022-08-12T01:10:40.695Z,20.55
2022-08-12T01:13:19.986Z,20.67
2022-08-12T01:15:52.300Z,20.83
2022-08-12T01:18:23.852Z,20.99
2022-08-12T01:21:02.163Z,21.12
2022-08-12T01:23:48.770Z,21.27
2022-08-12T01:26:20.016Z,21.41
2022-08-12T01:28:53.924Z,21.23
2022-08-12T01:31:26.960Z,20.12
2022-08-12T01:34:03.695Z,19.33
2022-08-12T01:36:37.762Z,19.84
2022-08-12T01:39:09.050Z,20.41
2022-08-12T01:41:41.319Z,20.71
2022-08-12T01:44:12.809Z,20.90
2022-08-12T01:46:52.716Z,20.99
2022-08-12T01:49:49.553Z,21.08
2022-08-12T01:52:28.733Z,20.80
2022-08-12T01:55:01.233Z,19.64
2022-08-12T01:57:59.438Z,18.93
2022-08-12T02:00:55.367Z,19.51
2022-08-12T02:03:55.996Z,20.03
2022-08-12T02:06:48.848Z,20.34
2022-08-12T02:09:40.310Z,20.48
2022-08-12T02:12:27.596Z,20.65
2022-08-12T02:15:04.795Z,20.58
2022-08-12T02:17:55.351Z,20.65
2022-08-12T02:20:43.903Z,20.47
2022-08-12T02:23:27.182Z,19.27
2022-08-12T02:26:04.643Z,18.53
2022-08-12T02:28:35.373Z,19.28
2022-08-12T02:31:07.191Z,19.76
2022-08-12T02:33:38.613Z,19.87
2022-08-12T02:36:09.616Z,19.79
2022-08-12T02:38:43.033Z,19.84
2022-08-12T02:41:14.669Z,19.84
2022-08-12T02:43:49.637Z,20.14
2022-08-12T02:46:23.096Z,20.22
2022-08-12T02:48:54.390Z,20.03
2022-08-12T02:51:27.429Z,19.84
2022-08-12T02:54:04.408Z,19.98
2022-08-12T02:56:41.177Z,20.06
2022-08-12T02:59:13.035Z,20.04
2022-08-12T03:01:48.143Z,20.05
2022-08-12T03:04:26.947Z,19.98
2022-08-12T03:07:05.723Z,19.94
2022-08-12T03:10:04.583Z,19.61
2022-08-12T03:12:41.201Z,19.49
2022-08-12T03:15:22.356Z,20.15
2022-08-12T03:18:26.017Z,19.91
2022-08-12T03:20:46.220Z,18.48
2022-08-12T03:23:29.068Z,18.72
2022-08-12T03:26:02.814Z,19.19
2022-08-12T03:28:54.527Z,19.13
2022-08-12T03:31:26.303Z,19.13
2022-08-12T03:34:02.107Z,19.22
2022-08-12T03:36:35.504Z,19.31
2022-08-12T03:39:22.966Z,19.22
2022-08-12T03:42:11.581Z,19.23
2022-08-12T03:45:01.398Z,19.24
2022-08-12T03:47:51.533Z,19.13
2022-08-12T03:50:40.612Z,19.11
2022-08-12T03:53:29.578Z,19.02
2022-08-12T03:56:18.104Z,18.95
2022-08-12T03:59:05.781Z,19.23
2022-08-12T04:01:40.779Z,19.47
2022-08-12T04:04:11.841Z,19.80
2022-08-12T04:06:46.186Z,19.79
2022-08-12T04:09:17.538Z,19.75
2022-08-12T04:12:05.954Z,19.68
2022-08-12T04:14:36.618Z,19.66
2022-08-12T04:17:08.788Z,19.87
2022-08-12T04:19:39.688Z,19.71
2022-08-12T04:22:12.778Z,19.47
2022-08-12T04:24:50.367Z,19.53
2022-08-12T04:27:21.817Z,19.69
2022-08-12T04:30:30.946Z,19.76
2022-08-12T04:32:44.896Z,19.61
2022-08-12T04:35:15.517Z,19.60
2022-08-12T04:37:59.195Z,19.77
2022-08-12T04:40:31.613Z,20.07
2022-08-12T04:43:02.788Z,20.34
2022-08-12T04:45:35.033Z,20.13
2022-08-12T04:48:06.789Z,18.97
2022-08-12T04:50:40.844Z,18.83
2022-08-12T04:53:13.209Z,19.31
2022-08-12T04:55:45.950Z,19.76
2022-08-12T04:58:16.559Z,20.18
2022-08-12T05:01:01.354Z,20.27
2022-08-12T05:03:46.120Z,20.25
2022-08-12T05:06:26.449Z,20.27
2022-08-12T05:09:00.847Z,20.47
2022-08-12T05:11:31.316Z,20.69
2022-08-12T05:14:02.598Z,20.93
2022-08-12T05:16:34.250Z,21.11
2022-08-12T05:19:18.458Z,20.40
2022-08-12T05:21:51.906Z,19.35
2022-08-12T05:24:22.582Z,19.52
2022-08-12T05:26:53.525Z,20.27
2022-08-12T05:30:07.559Z,20.76
2022-08-12T05:32:20.755Z,21.24
2022-08-12T05:34:51.981Z,21.42
2022-08-12T05:37:22.878Z,21.52
2022-08-12T05:39:53.739Z,21.61
2022-08-12T05:42:30.998Z,21.77
2022-08-12T05:45:06.177Z,21.92
2022-08-12T05:47:53.800Z,21.14
2022-08-12T05:50:26.675Z,20.35
2022-08-12T05:52:57.140Z,20.95
2022-08-12T05:55:31.207Z,21.60
2022-08-12T05:58:03.160Z,21.90
2022-08-12T06:00:33.982Z,22.24
2022-08-12T06:03:04.990Z,22.24
2022-08-12T06:05:54.236Z,21.28
2022-08-12T06:08:25.904Z,21.05
2022-08-12T06:10:57.415Z,21.80
2022-08-12T06:13:53.846Z,22.30
2022-08-12T06:16:20.542Z,22.56
2022-08-12T06:18:50.895Z,22.59
2022-08-12T06:21:23.780Z,21.86
2022-08-12T06:23:54.596Z,21.31
2022-08-12T06:26:25.759Z,21.79
2022-08-12T06:28:57.001Z,22.38
2022-08-12T06:31:28.083Z,22.82
2022-08-12T06:35:23.977Z,22.22
2022-08-12T06:36:49.583Z,21.27
2022-08-12T06:39:20.574Z,21.53
2022-08-12T06:42:32.165Z,22.25
2022-08-12T06:45:00.696Z,22.91
2022-08-12T06:47:33.103Z,23.00
2022-08-12T06:50:04.211Z,22.20
2022-08-12T06:52:35.280Z,21.59
2022-08-12T06:55:07.569Z,22.21
2022-08-12T06:58:05.576Z,22.85
2022-08-12T07:00:39.155Z,23.13
2022-08-12T07:03:22.604Z,23.13
2022-08-12T07:05:54.654Z,22.30
2022-08-12T07:08:27.769Z,21.83
2022-08-12T07:10:59.377Z,22.45
2022-08-12T07:13:36.064Z,22.94
2022-08-12T07:16:27.074Z,23.12
2022-08-12T07:18:58.992Z,22.15
2022-08-12T07:21:59.019Z,21.72
2022-08-12T07:24:23.170Z,22.55
2022-08-12T07:26:55.042Z,23.30
2022-08-12T07:29:59.492Z,23.63
2022-08-12T07:32:16.571Z,22.88
2022-08-12T07:34:47.759Z,22.14
2022-08-12T07:37:18.423Z,22.13
2022-08-12T07:39:51.113Z,22.94
2022-08-12T07:42:31.338Z,23.60
2022-08-12T07:45:02.648Z,23.79
2022-08-12T07:47:33.969Z,23.17
2022-08-12T07:50:09.516Z,22.46
2022-08-12T07:52:42.386Z,22.35
2022-08-12T07:55:15.072Z,23.23
2022-08-12T07:57:54.343Z,23.81
2022-08-12T08:00:26.814Z,23.59
2022-08-12T08:02:57.211Z,22.79
2022-08-12T08:05:29.249Z,22.26
2022-08-12T08:08:02.572Z,22.78
2022-08-12T08:10:34.491Z,23.56
2022-08-12T08:13:06.082Z,23.62
2022-08-12T08:16:02.933Z,22.97
2022-08-12T08:18:27.805Z,22.50
2022-08-12T08:20:58.492Z,23.27
2022-08-12T08:23:56.284Z,23.83
2022-08-12T08:26:28.993Z,23.21
2022-08-12T08:29:09.011Z,22.71
2022-08-12T08:31:44.990Z,22.65
2022-08-12T08:34:27.649Z,23.67
2022-08-12T08:37:07.760Z,24.02
2022-08-12T08:39:40.904Z,23.40
2022-08-12T08:42:29.509Z,22.87
2022-08-12T08:45:13.212Z,22.50
2022-08-12T08:47:47.209Z,22.24
2022-08-12T08:50:17.702Z,22.08
2022-08-12T08:52:49.809Z,21.93
2022-08-12T08:55:27.408Z,21.96
2022-08-12T08:58:04.735Z,23.02
2022-08-12T09:00:35.567Z,23.44
2022-08-12T09:04:21.287Z,22.98
2022-08-12T09:06:02.083Z,22.59
2022-08-12T09:08:33.802Z,22.37
2022-08-12T09:12:07.302Z,22.22
2022-08-12T09:14:18.752Z,22.44
2022-08-12T09:16:50.969Z,23.62
2022-08-12T09:19:26.918Z,23.76
2022-08-12T09:24:50.367Z,22.92
2022-08-12T09:27:24.529Z,22.70
2022-08-12T09:30:16.207Z,22.49
2022-08-12T09:33:05.055Z,22.39
2022-08-12T09:35:44.297Z,22.47
2022-08-12T09:38:27.695Z,23.58
2022-08-12T09:42:09.512Z,23.93
2022-08-12T09:44:38.585Z,23.23
2022-08-12T09:47:00.348Z,22.76
2022-08-12T09:49:42.066Z,22.60
2022-08-12T09:52:15.571Z,22.55
2022-08-12T09:54:44.423Z,22.50
2022-08-12T09:58:45.115Z,22.53
2022-08-12T10:00:17.667Z,23.63
2022-08-12T10:03:01.495Z,24.68
2022-08-12T10:06:19.810Z,24.40
2022-08-12T10:08:27.592Z,23.91
2022-08-12T10:11:19.958Z,23.61
2022-08-12T10:13:52.994Z,23.41
2022-08-12T10:16:24.777Z,23.32
2022-08-12T10:19:00.066Z,23.24
2022-08-12T10:21:36.358Z,23.20
2022-08-12T10:24:09.552Z,23.16
2022-08-12T10:26:58.387Z,23.09
2022-08-12T10:30:37.780Z,23.13
2022-08-12T10:32:44.546Z,23.15
2022-08-12T10:35:20.983Z,23.21
2022-08-12T10:38:33.281Z,23.22
2022-08-12T10:40:56.372Z,23.19
2022-08-12T10:43:55.658Z,23.17
2022-08-12T10:46:31.234Z,23.18
2022-08-12T10:49:06.262Z,23.19
2022-08-12T10:52:32.373Z,23.25
2022-08-12T10:54:49.230Z,23.33
2022-08-12T10:58:14.998Z,23.41
2022-08-12T11:00:31.854Z,23.52
2022-08-12T11:04:25.546Z,23.61
2022-08-12T11:07:08.742Z,23.57
2022-08-12T11:08:51.006Z,23.56
2022-08-12T11:12:07.544Z,23.63
2022-08-12T11:14:49.411Z,23.70
2022-08-12T11:17:33.552Z,23.74
2022-08-12T11:19:55.017Z,23.73
2022-08-12T11:22:25.847Z,23.73
2022-08-12T11:25:00.984Z,23.76
2022-08-12T11:27:40.917Z,23.84
2022-08-12T11:30:31.396Z,23.95
2022-08-12T11:33:11.947Z,24.01
2022-08-12T11:35:59.556Z,24.03
2022-08-12T11:38:30.094Z,24.02
2022-08-12T11:41:00.736Z,24.06
2022-08-12T11:43:32.516Z,24.18
2022-08-12T11:46:21.787Z,24.19
2022-08-12T11:48:52.910Z,24.21
2022-08-12T11:51:23.863Z,24.25
2022-08-12T11:53:58.197Z,24.33
2022-08-12T11:56:38.212Z,24.44
2022-08-12T12:02:05.592Z,24.61
2022-08-12T12:04:36.486Z,24.68
2022-08-12T12:07:11.382Z,24.75
2022-08-12T12:09:53.342Z,24.79
2022-08-12T12:12:25.414Z,24.88
2022-08-12T12:15:01.613Z,24.94
2022-08-12T12:17:38.630Z,25.05
2022-08-12T12:20:11.434Z,25.13
2022-08-12T12:22:45.151Z,25.22
2022-08-12T12:25:15.879Z,25.55
2022-08-12T12:28:04.696Z,26.19
2022-08-12T12:30:37.324Z,27.01
2022-08-12T12:33:08.627Z,27.66
2022-08-12T12:36:18.856Z,28.11
2022-08-12T12:38:31.501Z,28.59
2022-08-12T12:41:16.191Z,28.57
2022-08-12T12:43:56.445Z,28.53
2022-08-12T12:46:35.414Z,28.47
2022-08-12T12:49:10.914Z,28.65
2022-08-12T12:51:56.441Z,28.89
2022-08-12T12:54:32.537Z,29.36
2022-08-12T12:57:04.286Z,29.93
2022-08-12T13:00:00.897Z,30.30
2022-08-12T13:02:32.110Z,30.56
2022-08-12T13:05:02.921Z,30.74
2022-08-12T13:07:54.090Z,30.89
2022-08-12T13:10:30.538Z,30.88
2022-08-12T13:14:09.693Z,30.80
2022-08-12T13:15:54.146Z,30.80
2022-08-12T13:18:36.570Z,30.91
2022-08-12T13:21:15.675Z,31.21
2022-08-12T13:24:00.403Z,31.39
2022-08-12T13:26:35.202Z,31.51
2022-08-12T13:29:11.585Z,31.80
2022-08-12T13:31:46.484Z,31.84
2022-08-12T13:34:35.704Z,31.21
2022-08-12T13:37:09.752Z,30.59
2022-08-12T13:39:40.758Z,30.33
2022-08-12T13:42:13.720Z,30.51
2022-08-12T13:44:46.211Z,30.83
2022-08-12T13:47:19.754Z,31.27
2022-08-12T13:49:53.794Z,31.71
2022-08-12T13:52:26.628Z,32.17
2022-08-12T13:54:57.462Z,32.44
2022-08-12T13:57:44.688Z,32.46
2022-08-12T14:00:18.430Z,32.45
2022-08-12T14:02:53.262Z,32.61
2022-08-12T14:05:37.545Z,32.74
2022-08-12T14:08:11.040Z,32.86
2022-08-12T14:10:50.460Z,33.14
2022-08-12T14:14:06.168Z,33.40
2022-08-12T14:16:14.453Z,33.55
2022-08-12T14:18:49.077Z,33.81
2022-08-12T14:21:22.495Z,33.88
2022-08-12T14:24:07.919Z,33.92
2022-08-12T14:26:39.546Z,33.78
2022-08-12T14:29:21.586Z,33.61
2022-08-12T14:31:53.574Z,33.47
2022-08-12T14:34:28.436Z,33.38
2022-08-12T14:37:02.764Z,33.46
2022-08-12T14:39:39.171Z,33.51
2022-08-12T14:42:09.852Z,33.59
2022-08-12T14:44:57.798Z,33.70
2022-08-12T14:47:35.530Z,33.68
2022-08-12T14:50:40.856Z,33.73
2022-08-12T14:59:20.654Z,33.86
2022-08-12T15:01:54.474Z,33.82
2022-08-12T15:04:29.132Z,33.94
2022-08-12T15:07:00.350Z,34.22
2022-08-12T15:09:31.846Z,34.42
2022-08-12T15:12:03.755Z,34.21
2022-08-12T15:14:37.891Z,33.66
2022-08-12T15:17:08.966Z,33.09
2022-08-12T15:20:30.752Z,32.43
2022-08-12T15:22:38.179Z,31.81
2022-08-12T15:25:17.503Z,31.45
2022-08-12T15:28:05.766Z,31.22
2022-08-12T15:30:37.918Z,30.69
2022-08-12T15:33:12.922Z,30.09
2022-08-12T15:35:50.465Z,29.59
2022-08-12T15:38:27.717Z,29.27
2022-08-12T15:41:00.257Z,28.85
2022-08-12T15:43:52.078Z,28.41
2022-08-12T15:46:25.798Z,27.99
2022-08-12T15:48:57.539Z,27.61
2022-08-12T15:51:57.343Z,27.22
2022-08-12T15:54:33.854Z,26.94
2022-08-12T15:57:07.708Z,26.73
2022-08-12T16:00:03.669Z,26.56
2022-08-12T16:02:30.099Z,26.42
2022-08-12T16:05:01.288Z,26.25
2022-08-12T16:07:40.977Z,26.15
2022-08-12T16:10:11.834Z,26.12
2022-08-12T16:12:54.509Z,26.06
2022-08-12T16:15:29.606Z,26.04
2022-08-12T16:18:19.071Z,25.99
2022-08-12T16:20:52.369Z,25.93
2022-08-12T16:23:35.825Z,25.86
2022-08-12T16:26:19.958Z,25.77
2022-08-12T16:28:52.527Z,25.66
2022-08-12T16:31:24.017Z,25.60
2022-08-12T16:33:59.027Z,25.55
2022-08-12T16:36:31.895Z,25.51
2022-08-12T16:39:03.941Z,25.45
2022-08-12T16:41:39.805Z,25.40
2022-08-12T16:44:10.853Z,25.36
2022-08-12T16:46:42.404Z,25.30
2022-08-12T16:49:29.933Z,25.26
2022-08-12T16:52:14.738Z,25.21
2022-08-12T16:54:48.189Z,25.15
2022-08-12T16:57:20.054Z,25.15
2022-08-12T17:00:07.615Z,25.15
2022-08-12T17:02:37.857Z,25.11
2022-08-12T17:05:12.850Z,25.09
2022-08-12T17:07:47.160Z,25.07
2022-08-12T17:10:36.095Z,25.05
2022-08-12T17:13:10.249Z,24.98
2022-08-12T17:15:57.453Z,24.97
2022-08-12T17:18:43.096Z,24.93
2022-08-12T17:21:40.207Z,24.83
2022-08-12T17:24:15.362Z,24.74
2022-08-12T17:26:49.281Z,24.65
2022-08-12T17:29:32.173Z,24.56
2022-08-12T17:32:14.692Z,24.44
2022-08-12T17:35:03.310Z,24.37
2022-08-12T17:37:34.143Z,24.32
2022-08-12T17:40:13.766Z,24.26
2022-08-12T17:42:49.014Z,24.21
2022-08-12T17:45:20.164Z,24.18
2022-08-12T17:48:05.396Z,24.13
2022-08-12T17:50:38.252Z,24.03
2022-08-12T17:53:10.128Z,23.97
2022-08-12T17:55:48.260Z,23.91
2022-08-12T17:58:35.600Z,23.85
2022-08-12T18:01:11.425Z,23.77
2022-08-12T18:04:05.479Z,23.70
2022-08-12T18:06:34.968Z,23.64
2022-08-12T18:09:09.378Z,23.59
2022-08-12T18:12:06.541Z,23.52
2022-08-12T18:14:41.342Z,23.45
2022-08-12T18:17:14.061Z,23.39
2022-08-12T18:20:06.280Z,23.34
2022-08-12T18:22:36.496Z,23.28
2022-08-12T18:26:12.545Z,23.49
2022-08-12T18:28:15.862Z,24.78
2022-08-12T18:30:53.293Z,25.51
2022-08-12T18:33:26.921Z,25.00
2022-08-12T18:35:58.419Z,24.51
2022-08-12T18:38:29.421Z,24.14
2022-08-12T18:41:21.477Z,23.87
2022-08-12T18:43:59.736Z,23.65
2022-08-12T18:46:56.913Z,23.49
2022-08-12T18:49:33.391Z,23.33
2022-08-12T18:52:11.930Z,23.57
2022-08-12T18:54:49.002Z,24.72
2022-08-12T18:58:07.076Z,25.46
2022-08-12T19:00:21.478Z,24.92
2022-08-12T19:02:53.935Z,24.37
2022-08-12T19:05:54.237Z,23.98
2022-08-12T19:08:15.705Z,23.66
2022-08-12T19:10:50.239Z,23.43
2022-08-12T19:13:39.571Z,23.54
2022-08-12T19:16:12.705Z,24.71
2022-08-12T19:18:45.025Z,25.14
2022-08-12T19:21:17.033Z,24.63
2022-08-12T19:24:12.859Z,24.12
2022-08-12T19:26:43.818Z,23.71
2022-08-12T19:29:17.381Z,23.65
2022-08-12T19:31:57.337Z,24.60
2022-08-12T19:37:27.147Z,24.71
2022-08-12T19:40:09.397Z,24.20
2022-08-12T19:43:00.738Z,23.79
2022-08-12T19:45:41.804Z,23.60
2022-08-12T19:48:16.915Z,24.43
2022-08-12T19:50:50.202Z,25.45
2022-08-12T19:53:24.035Z,25.78
2022-08-12T19:55:55.845Z,25.10
2022-08-12T19:58:26.802Z,24.45
2022-08-12T20:00:57.748Z,23.90
2022-08-12T20:03:40.622Z,23.86
2022-08-12T20:06:15.709Z,24.76
2022-08-12T20:08:56.546Z,25.21
2022-08-12T20:12:15.042Z,24.56
2022-08-12T20:14:21.007Z,23.91
2022-08-12T20:16:57.355Z,24.20
2022-08-12T20:20:00.975Z,24.93
2022-08-12T20:22:31.374Z,25.17
2022-08-12T20:25:10.759Z,24.44
2022-08-12T20:28:04.277Z,23.76
2022-08-12T20:30:52.322Z,24.39
2022-08-12T20:33:50.187Z,25.23
2022-08-12T20:36:40.622Z,24.96
2022-08-12T20:39:33.912Z,23.97
2022-08-12T20:42:02.476Z,23.70
2022-08-12T20:44:37.754Z,24.48
2022-08-12T20:47:20.247Z,25.15
2022-08-12T20:49:55.981Z,25.17
2022-08-12T20:52:35.200Z,24.20
2022-08-12T20:55:15.599Z,23.67
2022-08-12T20:58:02.705Z,24.35
2022-08-12T21:00:35.996Z,25.10
2022-08-12T21:03:20.431Z,24.89
2022-08-12T21:06:12.300Z,24.04
2022-08-12T21:08:44.559Z,23.77
2022-08-12T21:11:15.664Z,24.55
2022-08-12T21:13:46.712Z,25.11
2022-08-12T21:16:31.461Z,24.73
2022-08-12T21:19:07.907Z,23.74
2022-08-12T21:21:40.421Z,23.46
2022-08-12T21:24:20.867Z,24.28
2022-08-12T21:27:03.468Z,24.82
2022-08-12T21:29:39.906Z,24.40
2022-08-12T21:32:36.797Z,23.43
2022-08-12T21:35:19.012Z,23.10
2022-08-12T21:37:53.401Z,23.84
2022-08-12T21:40:36.833Z,24.48
2022-08-12T21:43:09.902Z,24.66
2022-08-12T21:45:47.004Z,24.97
2022-08-12T21:48:29.017Z,25.21
2022-08-12T21:50:59.950Z,25.09
2022-08-12T21:53:31.753Z,24.20
2022-08-12T21:56:34.271Z,23.43
2022-08-12T21:59:13.615Z,24.02
2022-08-12T22:01:49.064Z,24.41
2022-08-12T22:04:38.128Z,24.66
2022-08-12T22:07:08.810Z,24.88
2022-08-12T22:09:43.328Z,25.06
2022-08-12T22:12:31.942Z,24.86
2022-08-12T22:15:04.124Z,23.83
2022-08-12T22:17:50.266Z,23.26
2022-08-12T22:20:22.227Z,23.87
2022-08-12T22:22:56.433Z,24.32
2022-08-12T22:25:28.025Z,24.61
2022-08-12T22:28:16.483Z,24.80
2022-08-12T22:31:04.684Z,24.90
2022-08-12T22:33:54.310Z,25.08
2022-08-12T22:36:29.298Z,25.20
2022-08-12T22:39:00.365Z,25.24
2022-08-12T22:41:56.708Z,25.37
2022-08-12T22:44:54.436Z,25.05
2022-08-12T22:47:49.751Z,23.67
2022-08-12T22:50:29.725Z,23.31
2022-08-12T22:53:15.727Z,23.74
2022-08-12T22:56:05.804Z,24.11
2022-08-12T22:58:40.800Z,24.46
2022-08-12T23:01:21.355Z,24.63
2022-08-12T23:04:03.237Z,24.65
2022-08-12T23:06:33.923Z,24.82
2022-08-12T23:09:06.035Z,24.77
2022-08-12T23:11:40.710Z,24.78
2022-08-12T23:14:12.407Z,24.74
2022-08-12T23:16:43.521Z,24.94
2022-08-12T23:19:18.273Z,24.97
2022-08-12T23:22:03.919Z,24.98
2022-08-12T23:24:55.642Z,25.00
2022-08-12T23:27:51.787Z,25.04
2022-08-12T23:30:31.981Z,24.71
2022-08-12T23:33:20.026Z,24.78
2022-08-12T23:36:02.521Z,24.70
2022-08-12T23:38:35.059Z,24.77
2022-08-12T23:41:12.956Z,24.74
2022-08-12T23:43:50.004Z,24.81
2022-08-12T23:46:22.725Z,24.94
2022-08-12T23:48:58.578Z,25.05
2022-08-12T23:51:32.385Z,24.91
2022-08-12T23:54:07.415Z,24.85
2022-08-12T23:56:39.090Z,24.87
2022-08-12T23:59:16.625Z,24.94
